createdAt,value
2018-12-13T00:01:47.229Z,87.63
2018-12-13T00:03:54.266Z,101.60
2018-12-13T00:06:00.976Z,96.00
2018-12-13T00:08:07.781Z,108.57
2018-12-13T00:10:14.703Z,104.60
2018-12-13T00:12:21.666Z,95.17
2018-12-13T00:14:28.427Z,100.37
2018-12-13T00:16:35.599Z,104.10
2018-12-13T00:18:42.336Z,98.70
2018-12-13T00:20:49.022Z,103.30
2018-12-13T00:22:56.104Z,97.07
2018-12-13T00:25:02.970Z,105.97
2018-12-13T00:27:09.782Z,104.83
2018-12-13T00:29:17.102Z,103.57
2018-12-13T00:31:24.130Z,103.97
2018-12-13T00:33:30.822Z,113.60
2018-12-13T00:35:37.841Z,103.57
2018-12-13T00:37:44.746Z,96.73
2018-12-13T00:39:51.520Z,88.00
2018-12-13T00:41:59.203Z,91.17
2018-12-13T00:44:06.993Z,87.03
2018-12-13T00:46:13.815Z,85.17
2018-12-13T00:48:20.712Z,85.37
2018-12-13T00:50:27.706Z,89.77
2018-12-13T00:52:34.421Z,92.97
2018-12-13T00:54:41.370Z,93.43
2018-12-13T00:56:48.217Z,102.67
2018-12-13T00:58:55.160Z,103.67
2018-12-13T01:01:02.889Z,102.97
2018-12-13T01:03:09.629Z,104.20
2018-12-13T01:05:16.574Z,117.30
2018-12-13T01:07:23.511Z,108.60
2018-12-13T01:09:30.632Z,119.43
2018-12-13T01:11:37.430Z,116.20
2018-12-13T01:13:44.613Z,116.23
2018-12-13T01:15:51.340Z,103.13
2018-12-13T01:17:58.659Z,101.63
2018-12-13T01:20:06.324Z,104.50
2018-12-13T01:22:13.279Z,102.47
2018-12-13T01:24:19.976Z,111.63
2018-12-13T01:26:26.950Z,107.53
2018-12-13T01:28:34.652Z,103.77
2018-12-13T01:30:41.513Z,111.87
2018-12-13T01:32:48.350Z,113.37
2018-12-13T01:34:55.177Z,117.67
2018-12-13T01:37:01.863Z,116.03
2018-12-13T01:39:09.254Z,118.33
2018-12-13T01:41:16.027Z,113.43
2018-12-13T01:43:23.147Z,108.13
2018-12-13T01:45:30.216Z,114.57
2018-12-13T01:47:37.121Z,103.93
2018-12-13T01:49:43.665Z,107.20
2018-12-13T01:51:50.591Z,92.73
2018-12-13T01:53:57.661Z,97.13
2018-12-13T01:56:04.935Z,99.60
2018-12-13T01:58:12.106Z,113.27
2018-12-13T02:00:19.496Z,106.53
2018-12-13T02:02:26.397Z,110.53
2018-12-13T02:04:33.172Z,110.97
2018-12-13T02:06:40.213Z,115.23
2018-12-13T02:08:47.132Z,115.57
2018-12-13T02:10:54.026Z,119.67
2018-12-13T02:13:00.754Z,118.93
2018-12-13T02:15:08.160Z,119.23
2018-12-13T02:17:14.868Z,122.20
2018-12-13T02:19:21.767Z,124.93
2018-12-13T02:21:28.513Z,125.20
2018-12-13T02:23:35.309Z,129.07
2018-12-13T02:25:42.558Z,128.77
2018-12-13T02:27:49.282Z,125.33
2018-12-13T02:29:56.242Z,129.60
2018-12-13T02:32:03.024Z,130.40
2018-12-13T02:34:09.997Z,130.47
2018-12-13T02:36:17.317Z,127.73
2018-12-13T02:38:24.137Z,133.60
2018-12-13T02:40:30.897Z,136.30
2018-12-13T02:42:37.736Z,131.70
2018-12-13T02:44:44.518Z,133.13
2018-12-13T02:46:51.300Z,134.00
2018-12-13T02:49:07.847Z,125.77
2018-12-13T02:51:14.848Z,116.13
2018-12-13T02:53:21.589Z,114.97
2018-12-13T02:55:28.296Z,122.30
2018-12-13T02:57:36.211Z,115.37
2018-12-13T02:59:42.977Z,108.50
2018-12-13T03:01:49.960Z,114.43
2018-12-13T03:03:56.881Z,112.23
2018-12-13T03:06:03.532Z,116.33
2018-12-13T03:08:10.425Z,123.47
2018-12-13T03:10:17.385Z,126.53
2018-12-13T03:12:24.222Z,125.93
2018-12-13T03:14:30.778Z,130.00
2018-12-13T03:16:37.542Z,133.73
2018-12-13T03:18:44.540Z,133.77
2018-12-13T03:20:51.359Z,132.70
2018-12-13T03:22:58.242Z,141.70
2018-12-13T03:25:05.352Z,135.23
2018-12-13T03:27:12.454Z,134.47
2018-12-13T03:29:19.249Z,138.73
2018-12-13T03:31:26.293Z,140.87
2018-12-13T03:33:33.382Z,135.80
2018-12-13T03:35:40.184Z,135.03
2018-12-13T03:37:46.941Z,133.40
2018-12-13T03:39:53.883Z,140.33
2018-12-13T03:42:00.738Z,137.37
2018-12-13T03:44:08.007Z,138.90
2018-12-13T03:46:15.196Z,132.43
2018-12-13T03:48:21.935Z,127.60
2018-12-13T03:50:28.780Z,124.37
2018-12-13T03:52:35.693Z,124.77
2018-12-13T03:54:42.732Z,119.07
2018-12-13T03:56:49.534Z,124.27
2018-12-13T03:58:56.580Z,119.60
2018-12-13T04:01:03.469Z,112.83
2018-12-13T04:03:10.686Z,115.67
2018-12-13T04:05:17.557Z,109.73
2018-12-13T04:07:27.723Z,123.97
2018-12-13T04:09:33.342Z,122.27
2018-12-13T04:11:40.036Z,121.77
2018-12-13T04:13:46.726Z,124.30
2018-12-13T04:15:53.783Z,128.37
2018-12-13T04:18:01.248Z,129.27
2018-12-13T04:20:08.185Z,132.37
2018-12-13T04:22:14.848Z,130.13
2018-12-13T04:24:21.660Z,135.57
2018-12-13T04:26:28.525Z,134.97
2018-12-13T04:28:35.397Z,134.03
2018-12-13T04:30:42.413Z,136.30
2018-12-13T04:32:49.181Z,131.60
2018-12-13T04:34:55.887Z,137.70
2018-12-13T04:37:02.580Z,134.93
2018-12-13T04:39:10.352Z,135.43
2018-12-13T04:41:17.209Z,137.10
2018-12-13T04:43:24.275Z,135.87
2018-12-13T04:45:34.038Z,133.27
2018-12-13T04:47:40.831Z,136.30
2018-12-13T04:49:47.813Z,139.03
2018-12-13T04:51:54.893Z,135.57
2018-12-13T04:54:01.759Z,138.17
2018-12-13T04:56:08.679Z,128.93
2018-12-13T04:58:15.548Z,134.33
2018-12-13T05:00:22.400Z,122.20
2018-12-13T05:02:29.258Z,122.03
2018-12-13T05:04:36.585Z,115.57
2018-12-13T05:06:43.253Z,121.00
2018-12-13T05:08:49.873Z,103.90
2018-12-13T05:10:57.389Z,100.93
2018-12-13T05:13:04.220Z,99.83
2018-12-13T05:15:11.161Z,96.33
2018-12-13T05:17:18.118Z,95.33
2018-12-13T05:19:24.885Z,91.50
2018-12-13T05:21:31.780Z,90.93
2018-12-13T05:23:38.586Z,89.53
2018-12-13T05:25:45.529Z,90.23
2018-12-13T05:27:52.442Z,112.60
2018-12-13T05:29:59.288Z,106.77
2018-12-13T05:32:07.110Z,117.43
2018-12-13T05:34:13.771Z,114.73
2018-12-13T05:36:20.560Z,107.80
2018-12-13T05:38:28.666Z,118.93
2018-12-13T05:40:35.722Z,119.30
2018-12-13T05:42:42.708Z,132.47
2018-12-13T05:44:49.515Z,128.20
2018-12-13T05:46:56.693Z,124.87
2018-12-13T05:49:03.533Z,130.37
2018-12-13T05:51:10.535Z,129.63
2018-12-13T05:53:17.283Z,131.13
2018-12-13T05:55:24.212Z,133.13
2018-12-13T05:57:31.061Z,134.43
2018-12-13T05:59:37.731Z,132.43
2018-12-13T06:01:44.973Z,135.37
2018-12-13T06:03:51.748Z,139.37
2018-12-13T06:05:58.883Z,136.73
2018-12-13T06:08:05.982Z,140.73
2018-12-13T06:10:12.834Z,134.80
2018-12-13T06:12:19.530Z,123.00
2018-12-13T06:14:27.314Z,114.03
2018-12-13T06:16:34.267Z,109.80
2018-12-13T06:18:41.186Z,100.33
2018-12-13T06:20:48.007Z,103.73
2018-12-13T06:22:54.893Z,101.73
2018-12-13T06:25:01.674Z,96.97
2018-12-13T06:27:08.617Z,98.43
2018-12-13T06:29:15.405Z,95.57
2018-12-13T06:31:22.575Z,93.60
2018-12-13T06:33:29.607Z,92.10
2018-12-13T06:35:36.454Z,90.30
2018-12-13T06:37:43.510Z,91.43
2018-12-13T06:39:50.262Z,112.27
2018-12-13T06:41:56.971Z,109.43
2018-12-13T06:44:03.949Z,111.13
2018-12-13T06:46:10.645Z,107.60
2018-12-13T06:48:17.521Z,110.87
2018-12-13T06:50:24.220Z,116.07
2018-12-13T06:52:31.058Z,122.47
2018-12-13T06:54:38.034Z,120.33
2018-12-13T06:56:44.802Z,126.03
2018-12-13T06:58:51.681Z,126.13
2018-12-13T07:00:58.646Z,127.07
2018-12-13T07:03:05.615Z,129.97
2018-12-13T07:05:12.860Z,129.13
2018-12-13T07:07:20.967Z,126.53
2018-12-13T07:09:28.475Z,116.43
2018-12-13T07:11:36.067Z,104.27
2018-12-13T07:13:42.925Z,103.53
2018-12-13T07:15:49.650Z,98.70
2018-12-13T07:17:56.537Z,98.60
2018-12-13T07:20:03.906Z,97.93
2018-12-13T07:22:10.706Z,98.63
2018-12-13T07:24:17.514Z,94.60
2018-12-13T07:26:24.474Z,91.67
2018-12-13T07:28:31.850Z,89.00
2018-12-13T07:30:38.869Z,86.23
2018-12-13T07:32:45.737Z,117.40
2018-12-13T07:34:52.782Z,109.90
2018-12-13T07:36:59.425Z,110.63
2018-12-13T07:39:08.390Z,107.40
2018-12-13T07:41:15.695Z,111.60
2018-12-13T07:43:22.620Z,116.47
2018-12-13T07:45:29.321Z,118.17
2018-12-13T07:47:36.012Z,123.87
2018-12-13T07:49:43.105Z,120.93
2018-12-13T07:51:49.769Z,122.10
2018-12-13T07:53:56.434Z,121.33
2018-12-13T07:56:03.372Z,122.53
2018-12-13T07:58:10.807Z,125.57
2018-12-13T08:00:17.813Z,123.67
2018-12-13T08:02:24.498Z,126.03
2018-12-13T08:04:31.122Z,126.27
2018-12-13T08:06:37.829Z,125.63
2018-12-13T08:08:44.627Z,119.70
2018-12-13T08:10:51.394Z,110.00
2018-12-13T08:12:58.018Z,98.23
2018-12-13T08:15:05.092Z,99.57
2018-12-13T08:17:11.899Z,94.43
2018-12-13T08:19:18.605Z,94.07
2018-12-13T08:21:25.545Z,92.70
2018-12-13T08:23:32.396Z,94.23
2018-12-13T08:25:39.074Z,93.07
2018-12-13T08:27:45.869Z,124.40
2018-12-13T08:29:52.603Z,125.43
2018-12-13T08:31:59.447Z,108.30
2018-12-13T08:34:06.413Z,112.30
2018-12-13T08:36:13.390Z,115.03
2018-12-13T08:38:20.208Z,118.07
2018-12-13T08:40:27.237Z,114.23
2018-12-13T08:42:34.325Z,122.50
2018-12-13T08:44:40.955Z,119.57
2018-12-13T08:46:47.817Z,124.97
2018-12-13T08:48:54.737Z,128.80
2018-12-13T08:51:01.529Z,129.83
2018-12-13T08:53:08.472Z,126.00
2018-12-13T08:55:15.342Z,117.13
2018-12-13T08:57:22.052Z,104.23
2018-12-13T08:59:29.477Z,107.70
2018-12-13T09:01:36.418Z,95.93
2018-12-13T09:03:43.295Z,95.40
2018-12-13T09:05:50.390Z,91.90
2018-12-13T09:07:57.373Z,90.20
2018-12-13T09:10:04.486Z,89.70
2018-12-13T09:12:11.394Z,94.83
2018-12-13T09:14:18.259Z,113.93
2018-12-13T09:16:31.278Z,112.57
2018-12-13T09:18:34.160Z,117.00
2018-12-13T09:20:42.000Z,119.87
2018-12-13T09:22:48.850Z,115.07
2018-12-13T09:24:55.865Z,116.77
2018-12-13T09:27:02.882Z,121.50
2018-12-13T09:29:09.781Z,119.53
2018-12-13T09:31:16.639Z,109.50
2018-12-13T09:33:23.564Z,100.73
2018-12-13T09:35:30.380Z,93.77
2018-12-13T09:37:37.354Z,91.97
2018-12-13T09:39:44.166Z,90.07
2018-12-13T09:41:51.154Z,86.30
2018-12-13T09:43:58.000Z,89.70
2018-12-13T09:46:05.222Z,86.13
2018-12-13T09:48:12.050Z,88.43
2018-12-13T09:50:18.890Z,83.60
2018-12-13T09:52:25.788Z,90.57
2018-12-13T09:54:32.898Z,97.40
2018-12-13T09:56:39.844Z,102.57
2018-12-13T09:58:47.018Z,109.73
2018-12-13T10:00:53.725Z,109.57
2018-12-13T10:03:00.426Z,110.93
2018-12-13T10:05:07.537Z,116.90
2018-12-13T10:07:14.381Z,121.67
2018-12-13T10:09:22.050Z,119.13
2018-12-13T10:11:28.705Z,120.03
2018-12-13T10:13:35.521Z,121.30
2018-12-13T10:15:42.410Z,122.93
2018-12-13T10:17:49.230Z,123.10
2018-12-13T10:19:56.244Z,125.27
2018-12-13T10:22:03.270Z,123.83
2018-12-13T10:24:10.071Z,127.50
2018-12-13T10:26:17.139Z,128.13
2018-12-13T10:28:24.171Z,127.87
2018-12-13T10:30:30.886Z,129.57
2018-12-13T10:32:37.826Z,131.67
2018-12-13T10:34:44.726Z,133.37
2018-12-13T10:36:51.795Z,130.67
2018-12-13T10:38:58.431Z,129.77
2018-12-13T10:41:05.345Z,124.37
2018-12-13T10:43:12.250Z,115.20
2018-12-13T10:45:19.166Z,115.53
2018-12-13T10:47:25.834Z,109.13
2018-12-13T10:49:33.606Z,102.93
2018-12-13T10:51:40.701Z,95.27
2018-12-13T10:53:48.027Z,93.30
2018-12-13T10:55:55.218Z,86.83
2018-12-13T10:58:02.054Z,89.40
2018-12-13T11:00:14.358Z,89.50
2018-12-13T11:02:26.216Z,86.57
2018-12-13T11:04:33.329Z,85.20
2018-12-13T11:06:40.174Z,84.83
2018-12-13T11:08:47.769Z,84.63
2018-12-13T11:10:54.371Z,84.00
2018-12-13T11:13:01.765Z,81.80
2018-12-13T11:15:08.582Z,79.40
2018-12-13T11:17:15.493Z,85.23
2018-12-13T11:19:22.587Z,112.90
2018-12-13T11:21:29.515Z,109.50
2018-12-13T11:23:36.546Z,110.47
2018-12-13T11:25:43.501Z,117.33
2018-12-13T11:28:28.047Z,118.47
2018-12-13T11:30:35.019Z,120.57
2018-12-13T11:32:42.713Z,123.83
2018-12-13T11:34:49.597Z,118.97
2018-12-13T11:36:56.331Z,120.53
2018-12-13T11:39:05.920Z,118.90
2018-12-13T11:41:12.933Z,119.90
2018-12-13T11:43:19.956Z,120.80
2018-12-13T11:45:27.082Z,121.40
2018-12-13T11:47:34.546Z,133.07
2018-12-13T11:49:41.421Z,130.23
2018-12-13T11:51:48.598Z,126.40
2018-12-13T11:53:55.823Z,130.13
2018-12-13T11:56:02.431Z,131.87
2018-12-13T11:58:12.530Z,129.63
2018-12-13T12:00:19.299Z,128.83
2018-12-13T12:02:26.269Z,131.10
2018-12-13T12:04:33.173Z,133.37
2018-12-13T12:06:40.065Z,129.77
2018-12-13T12:08:46.689Z,126.77
2018-12-13T12:10:53.530Z,109.27
2018-12-13T12:13:01.058Z,109.20
2018-12-13T12:15:08.493Z,101.73
2018-12-13T12:17:15.405Z,97.73
2018-12-13T12:19:22.437Z,94.40
2018-12-13T12:21:29.344Z,90.07
2018-12-13T12:23:36.222Z,91.63
2018-12-13T12:25:43.053Z,91.63
2018-12-13T12:27:49.720Z,88.03
2018-12-13T12:29:56.379Z,86.97
2018-12-13T12:32:03.352Z,85.20
2018-12-13T12:34:10.221Z,85.10
2018-12-13T12:36:17.306Z,81.17
2018-12-13T12:38:24.092Z,80.60
2018-12-13T12:40:30.938Z,83.50
2018-12-13T12:42:38.263Z,86.77
2018-12-13T12:44:44.945Z,81.97
2018-12-13T12:46:51.806Z,83.67
2018-12-13T12:48:58.729Z,83.43
2018-12-13T12:51:05.745Z,83.70
2018-12-13T12:53:12.512Z,81.50
2018-12-13T12:55:19.747Z,80.17
2018-12-13T12:57:26.423Z,77.00
2018-12-13T12:59:33.114Z,73.60
2018-12-13T13:01:40.032Z,77.43
2018-12-13T13:03:46.629Z,74.87
2018-12-13T13:05:53.830Z,82.50
2018-12-13T13:08:00.625Z,70.00
2018-12-13T13:10:08.924Z,75.70
2018-12-13T13:12:16.177Z,74.80
2018-12-13T13:14:23.267Z,72.93
2018-12-13T13:16:30.217Z,74.67
2018-12-13T13:18:39.141Z,68.77
2018-12-13T13:20:45.877Z,72.07
2018-12-13T13:22:52.727Z,78.13
2018-12-13T13:24:59.473Z,115.87
2018-12-13T13:27:06.357Z,109.43
2018-12-13T13:29:13.540Z,112.87
2018-12-13T13:31:21.259Z,108.63
2018-12-13T13:33:28.193Z,113.10
2018-12-13T13:35:34.981Z,119.60
2018-12-13T13:37:42.221Z,106.80
2018-12-13T13:39:48.901Z,104.37
2018-12-13T13:41:55.962Z,92.23
2018-12-13T13:44:02.799Z,87.07
2018-12-13T13:46:09.730Z,80.73
2018-12-13T13:48:16.316Z,81.67
2018-12-13T13:50:22.984Z,75.50
2018-12-13T13:52:29.859Z,80.90
2018-12-13T13:54:36.786Z,80.30
2018-12-13T13:56:43.844Z,76.37
2018-12-13T13:58:50.716Z,108.10
2018-12-13T14:00:57.849Z,93.70
2018-12-13T14:03:04.618Z,113.70
2018-12-13T14:05:12.063Z,106.40
2018-12-13T14:07:18.988Z,109.77
2018-12-13T14:09:25.985Z,117.77
2018-12-13T14:11:32.689Z,109.93
2018-12-13T14:13:39.620Z,111.50
2018-12-13T14:15:47.071Z,113.37
2018-12-13T14:17:53.740Z,112.93
2018-12-13T14:20:00.569Z,114.83
2018-12-13T14:22:07.392Z,114.60
2018-12-13T14:24:14.119Z,117.40
2018-12-13T14:26:21.001Z,112.27
2018-12-13T14:28:27.789Z,112.70
2018-12-13T14:30:34.625Z,116.10
2018-12-13T14:32:41.429Z,100.37
2018-12-13T14:34:48.364Z,93.27
2018-12-13T14:36:55.113Z,88.43
2018-12-13T14:39:02.382Z,83.80
2018-12-13T14:41:09.412Z,92.57
2018-12-13T14:43:16.253Z,85.20
2018-12-13T14:45:22.901Z,83.17
2018-12-13T14:47:29.896Z,83.00
2018-12-13T14:49:36.978Z,98.30
2018-12-13T14:51:43.801Z,86.00
2018-12-13T14:53:51.285Z,98.40
2018-12-13T14:55:58.229Z,112.73
2018-12-13T14:58:05.045Z,116.27
2018-12-13T15:00:14.657Z,114.90
2018-12-13T15:02:21.461Z,118.07
2018-12-13T15:04:28.225Z,119.03
2018-12-13T15:06:35.274Z,119.37
2018-12-13T15:08:41.805Z,125.37
2018-12-13T15:10:48.972Z,122.57
2018-12-13T15:12:55.572Z,122.20
2018-12-13T15:15:02.472Z,120.70
2018-12-13T15:17:09.756Z,120.90
2018-12-13T15:19:16.626Z,118.17
2018-12-13T15:21:23.588Z,120.13
2018-12-13T15:23:30.407Z,122.00
2018-12-13T15:25:37.243Z,115.60
2018-12-13T15:27:43.936Z,124.43
2018-12-13T15:29:50.686Z,115.93
2018-12-13T15:31:59.601Z,108.60
2018-12-13T15:34:07.107Z,101.13
2018-12-13T15:36:13.739Z,97.33
2018-12-13T15:38:21.244Z,91.07
2018-12-13T15:40:28.194Z,89.30
2018-12-13T15:42:35.758Z,89.73
2018-12-13T15:44:45.352Z,100.03
2018-12-13T15:46:52.526Z,108.87
2018-12-13T15:48:59.419Z,105.53
2018-12-13T15:51:06.467Z,114.60
2018-12-13T15:53:13.444Z,118.37
2018-12-13T15:55:20.320Z,121.47
2018-12-13T15:57:27.357Z,126.73
2018-12-13T15:59:35.585Z,127.63
2018-12-13T16:01:42.258Z,128.33
2018-12-13T16:03:49.176Z,132.50
2018-12-13T16:05:56.009Z,132.20
2018-12-13T16:08:03.123Z,136.77
2018-12-13T16:10:09.748Z,133.33
2018-12-13T16:12:16.790Z,134.80
2018-12-13T16:14:23.699Z,132.63
2018-12-13T16:16:30.765Z,114.53
2018-12-13T16:20:58.753Z,100.67
2018-12-13T16:23:06.391Z,96.93
2018-12-13T16:25:14.002Z,89.07
2018-12-13T16:27:21.415Z,90.67
2018-12-13T16:29:28.540Z,83.90
2018-12-13T16:31:35.497Z,95.47
2018-12-13T16:33:42.377Z,107.80
2018-12-13T16:35:49.990Z,119.17
2018-12-13T16:37:57.018Z,113.53
2018-12-13T16:40:10.019Z,112.83
2018-12-13T16:42:12.730Z,102.23
2018-12-13T16:44:19.623Z,83.07
2018-12-13T16:46:26.445Z,94.23
2018-12-13T16:48:33.082Z,108.03
2018-12-13T16:50:39.750Z,114.47
2018-12-13T16:52:46.802Z,114.63
2018-12-13T16:54:53.402Z,116.73
2018-12-13T16:57:00.365Z,124.17
2018-12-13T16:59:07.693Z,126.20
2018-12-13T17:01:14.737Z,120.17
2018-12-13T17:03:56.986Z,126.40
2018-12-13T17:06:03.891Z,116.43
2018-12-13T17:08:10.797Z,122.27
2018-12-13T17:10:17.463Z,122.60
2018-12-13T17:12:24.470Z,127.03
2018-12-13T17:14:31.498Z,124.17
2018-12-13T17:16:38.676Z,120.30
2018-12-13T17:18:45.581Z,121.40
2018-12-13T17:20:52.814Z,130.50
2018-12-13T17:22:59.530Z,117.27
2018-12-13T17:25:06.392Z,132.70
2018-12-13T17:27:13.261Z,115.50
2018-12-13T17:29:19.845Z,128.57
2018-12-13T17:31:26.621Z,130.53
2018-12-13T17:33:33.511Z,121.60
2018-12-13T17:35:40.301Z,112.83
2018-12-13T17:37:47.157Z,121.73
2018-12-13T17:39:54.257Z,104.97
2018-12-13T17:42:01.312Z,105.93
2018-12-13T17:44:08.084Z,125.90
2018-12-13T17:46:14.967Z,125.97
2018-12-13T17:48:22.011Z,128.30
2018-12-13T17:50:29.032Z,123.17
2018-12-13T17:52:35.778Z,130.73
2018-12-13T17:54:42.674Z,132.07
2018-12-13T17:56:49.683Z,127.17
2018-12-13T17:58:56.808Z,133.33
2018-12-13T18:01:03.686Z,132.93
2018-12-13T18:03:10.607Z,124.67
2018-12-13T18:05:17.486Z,129.40
2018-12-13T18:07:25.745Z,126.77
2018-12-13T18:09:33.569Z,134.00
2018-12-13T18:11:40.878Z,134.70
2018-12-13T18:13:47.505Z,134.67
2018-12-13T18:15:55.547Z,126.73
2018-12-13T18:18:02.297Z,129.30
2018-12-13T18:20:10.091Z,137.77
2018-12-13T18:22:17.097Z,127.53
2018-12-13T18:24:23.903Z,126.93
2018-12-13T18:26:31.074Z,130.57
2018-12-13T18:28:37.811Z,134.73
2018-12-13T18:30:44.452Z,133.73
2018-12-13T18:32:51.447Z,125.57
2018-12-13T18:34:59.135Z,137.90
2018-12-13T18:37:06.086Z,131.07
2018-12-13T18:39:12.896Z,141.53
2018-12-13T18:41:19.713Z,130.37
2018-12-13T18:43:26.567Z,141.60
2018-12-13T18:45:37.457Z,133.97
2018-12-13T18:47:44.270Z,141.57
2018-12-13T18:49:51.098Z,142.37
2018-12-13T18:51:58.122Z,143.20
2018-12-13T18:54:04.620Z,141.67
2018-12-13T18:56:11.841Z,140.67
2018-12-13T18:58:18.934Z,140.03
2018-12-13T19:00:25.749Z,149.57
2018-12-13T19:02:32.591Z,142.00
2018-12-13T19:04:39.541Z,139.80
2018-12-13T19:06:46.596Z,143.53
2018-12-13T19:08:53.388Z,147.40
2018-12-13T19:11:00.372Z,142.37
2018-12-13T19:13:07.436Z,140.70
2018-12-13T19:15:14.601Z,147.20
2018-12-13T19:17:21.718Z,144.40
2018-12-13T19:19:28.361Z,150.87
2018-12-13T19:21:35.686Z,141.37
2018-12-13T19:23:42.749Z,137.43
2018-12-13T19:25:49.696Z,140.30
2018-12-13T19:27:56.802Z,130.73
2018-12-13T19:30:03.878Z,135.90
2018-12-13T19:32:10.627Z,126.23
2018-12-13T19:34:16.906Z,110.67
2018-12-13T19:36:24.002Z,108.57
2018-12-13T19:38:30.806Z,107.60
2018-12-13T19:40:37.629Z,107.53
2018-12-13T19:42:44.516Z,114.90
2018-12-13T19:44:51.510Z,124.40
2018-12-13T19:46:58.075Z,129.87
2018-12-13T19:49:05.321Z,130.53
2018-12-13T19:51:12.637Z,133.03
2018-12-13T19:53:19.825Z,134.23
2018-12-13T19:55:26.585Z,131.10
2018-12-13T19:57:33.529Z,130.77
2018-12-13T19:59:40.393Z,136.47
2018-12-13T20:01:47.309Z,135.90
2018-12-13T20:03:54.406Z,131.40
2018-12-13T20:06:01.821Z,135.77
2018-12-13T20:08:08.493Z,136.47
2018-12-13T20:10:15.466Z,137.73
2018-12-13T20:12:23.115Z,139.10
2018-12-13T20:14:29.809Z,135.10
2018-12-13T20:16:36.414Z,140.60
2018-12-13T20:18:43.189Z,141.10
2018-12-13T20:20:49.988Z,144.30
2018-12-13T20:22:56.638Z,144.70
2018-12-13T20:25:03.561Z,142.07
2018-12-13T20:27:10.589Z,145.27
2018-12-13T20:29:18.158Z,147.10
2018-12-13T20:31:25.350Z,149.87
2018-12-13T20:33:32.135Z,149.70
2018-12-13T20:35:39.174Z,149.80
2018-12-13T20:37:45.731Z,139.00
2018-12-13T20:39:52.987Z,132.90
2018-12-13T20:41:59.835Z,127.90
2018-12-13T20:44:06.720Z,118.87
2018-12-13T20:46:13.745Z,119.23
2018-12-13T20:48:21.650Z,120.03
2018-12-13T20:50:29.056Z,119.57
2018-12-13T20:52:36.697Z,150.40
2018-12-13T20:54:43.781Z,137.23
2018-12-13T20:56:51.237Z,128.87
2018-12-13T20:58:58.634Z,138.30
2018-12-13T21:01:07.075Z,137.40
2018-12-13T21:03:14.150Z,138.23
2018-12-13T21:05:21.342Z,141.27
2018-12-13T21:07:32.983Z,135.97
2018-12-13T21:09:39.722Z,137.73
2018-12-13T21:11:46.626Z,137.40
2018-12-13T21:13:53.551Z,137.23
2018-12-13T21:16:00.395Z,141.43
2018-12-13T21:18:07.458Z,141.03
2018-12-13T21:20:14.459Z,142.33
2018-12-13T21:22:21.397Z,143.00
2018-12-13T21:24:28.582Z,141.83
2018-12-13T21:26:35.578Z,140.57
2018-12-13T21:28:42.717Z,141.77
2018-12-13T21:30:49.176Z,140.90
2018-12-13T21:32:55.625Z,139.23
2018-12-13T21:35:01.968Z,131.27
2018-12-13T21:37:08.573Z,141.50
2018-12-13T21:39:16.153Z,142.13
2018-12-13T21:41:23.048Z,140.67
2018-12-13T21:43:29.994Z,134.83
2018-12-13T21:45:37.084Z,146.90
2018-12-13T21:47:44.289Z,139.70
2018-12-13T21:49:51.790Z,139.83
2018-12-13T21:51:58.765Z,135.37
2018-12-13T21:54:06.479Z,128.97
2018-12-13T21:56:13.380Z,125.07
2018-12-13T21:58:20.361Z,130.17
2018-12-13T22:00:27.447Z,133.13
2018-12-13T22:02:35.030Z,134.93
2018-12-13T22:04:42.017Z,136.80
2018-12-13T22:06:48.897Z,134.97
2018-12-13T22:08:55.862Z,132.63
2018-12-13T22:11:02.788Z,135.07
2018-12-13T22:13:09.678Z,136.07
2018-12-13T22:15:16.342Z,139.63
2018-12-13T22:17:22.849Z,137.63
2018-12-13T22:19:29.220Z,136.70
2018-12-13T22:21:36.192Z,140.00
2018-12-13T22:23:42.603Z,146.40
2018-12-13T22:25:49.305Z,140.50
2018-12-13T22:27:55.649Z,140.57
2018-12-13T22:30:02.406Z,142.57
2018-12-13T22:32:09.338Z,134.83
2018-12-13T22:34:16.449Z,141.43
2018-12-13T22:36:23.213Z,132.20
2018-12-13T22:38:29.923Z,137.87
2018-12-13T22:40:36.814Z,140.90
2018-12-13T22:42:43.585Z,148.30
2018-12-13T22:44:51.030Z,147.33
2018-12-13T22:46:58.010Z,146.23
2018-12-13T22:49:05.272Z,146.97
2018-12-13T22:51:12.378Z,146.60
2018-12-13T22:53:19.339Z,143.60
2018-12-13T22:55:27.681Z,151.10
2018-12-13T22:57:34.858Z,151.07
2018-12-13T22:59:41.981Z,149.63
2018-12-13T23:01:48.982Z,152.60
2018-12-13T23:03:56.767Z,147.70
2018-12-13T23:06:03.720Z,145.87
2018-12-13T23:08:10.584Z,155.00
2018-12-13T23:10:17.874Z,147.93
2018-12-13T23:12:24.756Z,151.33
2018-12-13T23:14:31.993Z,151.43
2018-12-13T23:16:38.987Z,152.03
2018-12-13T23:18:46.851Z,151.83
2018-12-13T23:20:55.365Z,136.10
2018-12-13T23:23:02.410Z,129.40
2018-12-13T23:25:09.481Z,124.27
2018-12-13T23:27:16.735Z,119.50
2018-12-13T23:29:23.791Z,119.10
2018-12-13T23:31:31.564Z,113.07
2018-12-13T23:33:38.970Z,121.17
2018-12-13T23:35:45.859Z,127.10
2018-12-13T23:37:52.350Z,119.37
2018-12-13T23:39:58.818Z,128.80
2018-12-13T23:42:05.262Z,133.80
2018-12-13T23:44:12.630Z,133.40
2018-12-13T23:46:19.275Z,135.37
2018-12-13T23:48:25.660Z,134.37
2018-12-13T23:50:32.181Z,137.43
2018-12-13T23:52:39.130Z,135.33
2018-12-13T23:54:46.173Z,129.93
2018-12-13T23:56:53.245Z,138.70
2018-12-13T23:59:01.068Z,137.93
